createdAt,value
2019-03-19T00:00:01.991Z,8.40
2019-03-19T00:02:35.473Z,7.03
2019-03-19T00:05:08.830Z,10.60
2019-03-19T00:07:42.327Z,10.57
2019-03-19T00:10:15.821Z,8.53
2019-03-19T00:12:49.204Z,11.43
2019-03-19T00:15:22.634Z,6.43
2019-03-19T00:17:56.220Z,11.03
2019-03-19T00:20:30.623Z,8.50
2019-03-19T00:23:04.146Z,6.83
2019-03-19T00:25:37.800Z,9.43
2019-03-19T00:28:11.219Z,6.53
2019-03-19T00:30:44.656Z,18.60
2019-03-19T00:33:18.146Z,11.77
2019-03-19T00:35:51.691Z,8.60
2019-03-19T00:38:25.086Z,8.33
2019-03-19T00:40:58.552Z,11.27
2019-03-19T00:43:31.923Z,6.27
2019-03-19T00:46:05.459Z,8.20
2019-03-19T00:48:39.082Z,6.87
2019-03-19T00:51:12.623Z,9.63
2019-03-19T00:53:46.116Z,8.70
2019-03-19T00:56:19.625Z,7.53
2019-03-19T00:58:53.113Z,17.17
2019-03-19T01:01:26.529Z,7.27
2019-03-19T01:04:00.013Z,5.90
2019-03-19T01:06:33.464Z,11.20
2019-03-19T01:09:07.350Z,5.57
2019-03-19T01:11:40.807Z,7.10
2019-03-19T01:14:14.127Z,10.43
2019-03-19T01:16:47.814Z,7.60
2019-03-19T01:19:21.208Z,8.90
2019-03-19T01:21:54.656Z,10.73
2019-03-19T01:24:28.055Z,2.73
2019-03-19T01:27:01.492Z,11.60
2019-03-19T01:29:34.944Z,9.23
2019-03-19T01:32:08.358Z,5.67
2019-03-19T01:34:41.809Z,4.63
2019-03-19T01:37:15.284Z,10.53
2019-03-19T01:39:48.685Z,8.67
2019-03-19T01:42:22.074Z,9.47
2019-03-19T01:44:55.624Z,10.13
2019-03-19T01:47:28.969Z,5.27
2019-03-19T01:50:02.438Z,13.30
2019-03-19T01:52:35.888Z,12.47
2019-03-19T01:55:12.227Z,10.67
2019-03-19T01:57:45.747Z,5.00
2019-03-19T02:00:19.854Z,8.17
2019-03-19T02:02:53.323Z,9.50
2019-03-19T02:05:26.784Z,7.97
2019-03-19T02:08:00.184Z,6.30
2019-03-19T02:10:33.633Z,7.67
2019-03-19T02:13:07.178Z,8.20
2019-03-19T02:15:40.612Z,7.17
2019-03-19T02:18:14.042Z,8.87
2019-03-19T02:20:47.376Z,8.10
2019-03-19T02:23:20.833Z,8.17
2019-03-19T02:25:54.207Z,6.77
2019-03-19T02:28:27.617Z,12.43
2019-03-19T02:31:01.114Z,9.97
2019-03-19T02:33:34.519Z,6.80
2019-03-19T02:36:08.010Z,5.57
2019-03-19T02:38:41.408Z,5.50
2019-03-19T02:41:14.894Z,11.93
2019-03-19T02:43:48.390Z,9.13
2019-03-19T02:46:21.896Z,13.70
2019-03-19T02:48:55.238Z,11.67
2019-03-19T02:51:28.600Z,11.67
2019-03-19T02:54:02.220Z,8.10
2019-03-19T02:56:35.603Z,12.97
2019-03-19T02:59:09.028Z,9.50
2019-03-19T03:01:42.482Z,6.47
2019-03-19T03:04:15.913Z,7.53
2019-03-19T03:06:49.452Z,4.23
2019-03-19T03:09:22.948Z,7.20
2019-03-19T03:11:56.438Z,12.83
2019-03-19T03:14:29.991Z,4.67
2019-03-19T03:17:03.356Z,8.60
2019-03-19T03:19:36.707Z,12.73
2019-03-19T03:22:10.047Z,8.77
2019-03-19T03:24:43.380Z,7.97
2019-03-19T03:27:16.812Z,9.83
2019-03-19T03:29:50.208Z,8.43
2019-03-19T03:32:23.707Z,4.93
2019-03-19T03:34:57.088Z,6.20
2019-03-19T03:37:30.705Z,5.10
2019-03-19T03:40:06.920Z,11.47
2019-03-19T03:42:43.040Z,7.30
2019-03-19T03:45:16.613Z,10.53
2019-03-19T03:47:50.059Z,5.27
2019-03-19T03:50:23.397Z,7.67
2019-03-19T03:52:56.755Z,4.47
2019-03-19T03:55:31.356Z,10.47
2019-03-19T03:58:05.082Z,9.47
2019-03-19T04:00:38.649Z,10.67
2019-03-19T04:03:12.170Z,9.93
2019-03-19T04:05:45.618Z,10.40
2019-03-19T04:08:19.028Z,9.53
2019-03-19T04:10:52.424Z,8.23
2019-03-19T04:13:25.909Z,6.87
2019-03-19T04:15:59.258Z,9.50
2019-03-19T04:18:32.733Z,6.83
2019-03-19T04:21:06.219Z,7.93
2019-03-19T04:23:39.700Z,10.23
2019-03-19T04:26:13.165Z,9.20
2019-03-19T04:28:48.340Z,9.97
2019-03-19T04:31:21.765Z,6.40
2019-03-19T04:33:55.176Z,15.87
2019-03-19T04:36:28.574Z,14.63
2019-03-19T04:39:02.023Z,11.80
2019-03-19T04:41:35.430Z,13.10
2019-03-19T04:44:08.891Z,13.37
2019-03-19T04:46:42.310Z,12.40
2019-03-19T04:49:15.684Z,6.97
2019-03-19T04:51:49.060Z,15.53
2019-03-19T04:54:22.449Z,9.47
2019-03-19T04:56:55.925Z,12.50
2019-03-19T04:59:29.372Z,17.33
2019-03-19T05:02:02.770Z,17.93
2019-03-19T05:04:36.285Z,20.73
2019-03-19T05:07:09.630Z,21.80
2019-03-19T05:09:43.104Z,17.77
2019-03-19T05:12:16.474Z,23.03
2019-03-19T05:14:50.103Z,23.17
2019-03-19T05:17:23.517Z,18.70
2019-03-19T05:19:57.443Z,24.10
2019-03-19T05:22:31.228Z,19.00
2019-03-19T05:25:05.990Z,27.50
2019-03-19T05:27:39.758Z,17.70
2019-03-19T05:30:17.496Z,21.03
2019-03-19T05:32:50.871Z,20.40
2019-03-19T05:35:24.309Z,29.23
2019-03-19T05:37:57.706Z,20.03
2019-03-19T05:40:31.152Z,20.23
2019-03-19T05:43:04.613Z,16.30
2019-03-19T05:45:38.046Z,21.50
2019-03-19T05:48:11.464Z,31.10
2019-03-19T05:50:44.856Z,19.83
2019-03-19T05:53:18.279Z,23.07
2019-03-19T05:55:51.655Z,25.30
2019-03-19T05:58:25.094Z,16.73
2019-03-19T06:00:58.461Z,19.17
2019-03-19T06:03:31.810Z,17.80
2019-03-19T06:06:05.389Z,24.10
2019-03-19T06:08:38.752Z,25.17
2019-03-19T06:11:12.314Z,24.40
2019-03-19T06:13:45.763Z,24.43
2019-03-19T06:16:19.159Z,25.60
2019-03-19T06:18:52.632Z,22.90
2019-03-19T06:21:26.080Z,27.80
2019-03-19T06:23:59.613Z,18.30
2019-03-19T06:26:32.962Z,18.03
2019-03-19T06:29:06.420Z,21.50
2019-03-19T06:31:39.931Z,20.50
2019-03-19T06:34:13.478Z,18.60
2019-03-19T06:36:46.903Z,24.07
2019-03-19T06:39:20.438Z,16.03
2019-03-19T06:41:53.788Z,18.13
2019-03-19T06:44:27.228Z,23.87
2019-03-19T06:47:00.881Z,20.40
2019-03-19T06:49:34.481Z,18.57
2019-03-19T06:52:08.060Z,20.60
2019-03-19T06:54:41.682Z,19.00
2019-03-19T06:57:15.100Z,20.90
2019-03-19T06:59:48.655Z,23.33
2019-03-19T07:02:21.998Z,20.10
2019-03-19T07:04:55.363Z,15.80
2019-03-19T07:07:28.942Z,11.40
2019-03-19T07:10:02.447Z,19.03
2019-03-19T07:12:35.863Z,15.23
2019-03-19T07:15:14.655Z,11.37
2019-03-19T07:17:48.112Z,16.93
2019-03-19T07:20:22.934Z,13.77
2019-03-19T07:22:56.425Z,14.57
2019-03-19T07:25:29.926Z,20.07
2019-03-19T07:28:03.432Z,14.10
2019-03-19T07:30:37.024Z,13.10
2019-03-19T07:33:10.550Z,11.23
2019-03-19T07:35:43.976Z,15.27
2019-03-19T07:38:17.370Z,12.23
2019-03-19T07:40:50.894Z,16.37
2019-03-19T07:43:24.288Z,11.77
2019-03-19T07:45:57.950Z,13.13
2019-03-19T07:48:31.338Z,17.70
2019-03-19T07:51:04.909Z,14.30
2019-03-19T07:53:38.482Z,12.33
2019-03-19T07:56:12.054Z,14.77
2019-03-19T07:58:45.833Z,16.50
2019-03-19T08:01:19.439Z,11.33
2019-03-19T08:03:52.840Z,15.13
2019-03-19T08:06:26.391Z,12.97
2019-03-19T08:08:59.750Z,15.33
2019-03-19T08:11:33.251Z,17.03
2019-03-19T08:14:06.757Z,17.93
2019-03-19T08:16:40.180Z,18.10
2019-03-19T08:19:13.585Z,11.07
2019-03-19T08:21:47.172Z,13.67
2019-03-19T08:24:20.664Z,10.90
2019-03-19T08:26:54.278Z,10.40
2019-03-19T08:29:27.683Z,11.77
2019-03-19T08:32:01.169Z,9.80
2019-03-19T08:34:36.300Z,11.90
2019-03-19T08:37:10.099Z,14.30
2019-03-19T08:39:43.498Z,11.50
2019-03-19T08:42:16.856Z,10.43
2019-03-19T08:44:51.514Z,13.57
2019-03-19T08:47:24.952Z,16.23
2019-03-19T08:49:58.347Z,12.37
2019-03-19T08:52:31.896Z,13.37
2019-03-19T08:55:06.057Z,11.60
2019-03-19T08:57:39.483Z,14.83
2019-03-19T09:00:18.667Z,12.30
2019-03-19T09:02:52.160Z,13.13
2019-03-19T09:05:25.632Z,14.00
2019-03-19T09:07:59.175Z,11.83
2019-03-19T09:10:32.885Z,11.23
2019-03-19T09:13:06.491Z,9.80
2019-03-19T09:15:39.827Z,11.47
2019-03-19T09:18:13.204Z,14.37
2019-03-19T09:20:46.694Z,9.97
2019-03-19T09:23:20.121Z,11.10
2019-03-19T09:25:53.437Z,11.90
2019-03-19T09:28:26.937Z,9.27
2019-03-19T09:31:00.451Z,9.93
2019-03-19T09:33:33.990Z,6.63
2019-03-19T09:36:07.453Z,8.95
2019-03-19T09:38:40.856Z,5.60
2019-03-19T09:41:14.338Z,9.28
2019-03-19T09:43:47.689Z,7.42
2019-03-19T09:46:21.019Z,2.40
2019-03-19T09:48:54.584Z,5.35
2019-03-19T09:51:27.990Z,7.63
2019-03-19T09:54:01.409Z,4.87
2019-03-19T09:56:34.915Z,5.65
2019-03-19T09:59:08.437Z,6.93
2019-03-19T10:01:41.832Z,6.57
2019-03-19T10:04:15.308Z,6.03
2019-03-19T10:06:48.696Z,5.15
2019-03-19T10:09:22.200Z,3.80
2019-03-19T10:11:55.593Z,6.63
2019-03-19T10:14:29.033Z,9.28
2019-03-19T10:17:02.452Z,3.22
2019-03-19T10:19:35.892Z,7.35
2019-03-19T10:22:09.286Z,3.57
2019-03-19T10:24:42.666Z,4.65
2019-03-19T10:27:16.083Z,6.12
2019-03-19T10:29:49.447Z,6.12
2019-03-19T10:32:23.050Z,7.07
2019-03-19T10:34:56.433Z,5.83
2019-03-19T10:37:29.792Z,2.73
2019-03-19T10:40:04.075Z,5.57
2019-03-19T10:42:37.577Z,5.20
2019-03-19T10:45:16.972Z,7.50
2019-03-19T10:47:50.474Z,5.83
2019-03-19T10:50:26.272Z,3.70
2019-03-19T10:52:59.763Z,4.37
2019-03-19T10:55:33.324Z,6.97
2019-03-19T10:58:10.979Z,6.33
2019-03-19T11:00:42.101Z,5.60
2019-03-19T11:03:15.628Z,15.63
2019-03-19T11:05:49.025Z,5.07
2019-03-19T11:08:22.523Z,3.23
2019-03-19T11:10:56.018Z,5.30
2019-03-19T11:13:29.552Z,3.43
2019-03-19T11:16:03.176Z,2.63
2019-03-19T11:18:36.594Z,3.47
2019-03-19T11:21:09.999Z,2.40
2019-03-19T11:23:43.435Z,4.05
2019-03-19T11:26:16.884Z,7.30
2019-03-19T11:28:50.284Z,9.13
2019-03-19T11:31:23.676Z,5.80
2019-03-19T11:33:57.239Z,10.20
2019-03-19T11:36:30.678Z,8.50
2019-03-19T11:39:06.663Z,7.20
2019-03-19T11:41:40.392Z,10.07
2019-03-19T11:44:13.814Z,8.17
2019-03-19T11:46:47.348Z,11.17
2019-03-19T11:49:20.884Z,7.55
2019-03-19T11:51:54.339Z,7.00
2019-03-19T11:54:27.853Z,8.40
2019-03-19T11:57:01.259Z,8.07
2019-03-19T11:59:34.887Z,10.07
2019-03-19T12:02:08.403Z,7.10
2019-03-19T12:04:41.791Z,7.22
2019-03-19T12:07:15.378Z,6.83
2019-03-19T12:09:48.881Z,7.27
2019-03-19T12:12:22.373Z,9.65
2019-03-19T12:14:55.797Z,4.77
2019-03-19T12:17:29.217Z,7.58
2019-03-19T12:20:02.669Z,7.00
2019-03-19T12:22:36.114Z,12.50
2019-03-19T12:25:13.381Z,5.15
2019-03-19T12:27:46.741Z,5.60
2019-03-19T12:30:26.327Z,12.82
2019-03-19T12:32:59.150Z,6.42
2019-03-19T12:35:32.625Z,8.23
2019-03-19T12:38:06.130Z,13.40
2019-03-19T12:40:39.711Z,8.17
2019-03-19T12:43:13.548Z,5.95
2019-03-19T12:45:46.947Z,7.13
2019-03-19T12:48:20.463Z,4.27
2019-03-19T12:50:53.974Z,6.83
2019-03-19T12:53:27.560Z,8.23
2019-03-19T12:56:00.892Z,7.63
2019-03-19T12:58:34.310Z,8.00
2019-03-19T13:01:07.824Z,9.87
2019-03-19T13:03:41.413Z,9.67
2019-03-19T13:06:14.759Z,10.17
2019-03-19T13:08:48.160Z,6.93
2019-03-19T13:11:21.605Z,10.40
2019-03-19T13:13:55.139Z,12.93
2019-03-19T13:16:28.542Z,9.00
2019-03-19T13:19:02.113Z,7.13
2019-03-19T13:21:35.568Z,5.37
2019-03-19T13:24:08.963Z,7.17
2019-03-19T13:26:42.488Z,8.40
2019-03-19T13:29:15.922Z,5.40
2019-03-19T13:31:49.422Z,8.20
2019-03-19T13:34:22.883Z,6.67
2019-03-19T13:36:58.454Z,12.17
2019-03-19T13:39:31.560Z,7.90
2019-03-19T13:42:04.958Z,8.13
2019-03-19T13:44:38.311Z,8.53
2019-03-19T13:47:11.857Z,8.23
2019-03-19T13:49:45.333Z,10.30
2019-03-19T13:52:18.887Z,10.60
2019-03-19T13:54:52.282Z,8.80
2019-03-19T13:57:25.715Z,6.67
2019-03-19T13:59:59.175Z,7.27
2019-03-19T14:02:32.698Z,10.83
2019-03-19T14:05:08.897Z,8.33
2019-03-19T14:07:42.436Z,7.33
2019-03-19T14:10:19.627Z,4.50
2019-03-19T14:12:53.038Z,4.27
2019-03-19T14:15:27.498Z,5.50
2019-03-19T14:18:00.989Z,7.57
2019-03-19T14:20:34.457Z,5.77
2019-03-19T14:23:07.934Z,6.93
2019-03-19T14:25:41.418Z,4.00
2019-03-19T14:28:14.786Z,7.33
2019-03-19T14:30:48.307Z,2.87
2019-03-19T14:33:21.769Z,4.83
2019-03-19T14:35:55.431Z,1.97
2019-03-19T14:38:28.829Z,6.00
2019-03-19T14:41:02.459Z,4.60
2019-03-19T14:43:35.882Z,3.47
2019-03-19T14:46:09.379Z,5.67
2019-03-19T14:48:42.900Z,5.40
2019-03-19T14:51:16.441Z,3.93
2019-03-19T14:53:50.185Z,3.47
2019-03-19T14:56:23.548Z,3.40
2019-03-19T14:58:57.050Z,5.33
2019-03-19T15:01:30.449Z,3.13
2019-03-19T15:04:03.965Z,4.47
2019-03-19T15:06:37.361Z,5.40
2019-03-19T15:09:10.892Z,2.43
2019-03-19T15:11:44.597Z,6.73
2019-03-19T15:14:18.052Z,9.00
2019-03-19T15:16:51.569Z,2.67
2019-03-19T15:19:25.063Z,5.07
2019-03-19T15:21:58.396Z,3.93
2019-03-19T15:24:32.031Z,3.13
2019-03-19T15:27:05.695Z,4.50
2019-03-19T15:29:39.158Z,11.13
2019-03-19T15:32:12.610Z,5.13
2019-03-19T15:34:46.030Z,6.00
2019-03-19T15:37:19.649Z,5.50
2019-03-19T15:39:53.137Z,6.30
2019-03-19T15:42:26.483Z,6.77
2019-03-19T15:44:59.881Z,4.17
2019-03-19T15:47:33.367Z,7.40
2019-03-19T15:50:09.946Z,8.40
2019-03-19T15:52:43.801Z,5.93
2019-03-19T15:55:17.521Z,2.73
2019-03-19T15:57:51.000Z,3.73
2019-03-19T16:00:24.481Z,1.97
2019-03-19T16:02:58.161Z,4.00
2019-03-19T16:05:31.627Z,4.13
2019-03-19T16:08:05.120Z,6.43
2019-03-19T16:10:38.530Z,3.67
2019-03-19T16:13:11.990Z,4.40
2019-03-19T16:15:45.539Z,4.73
2019-03-19T16:18:19.168Z,6.07
2019-03-19T16:20:52.654Z,4.37
2019-03-19T16:23:26.065Z,6.17
2019-03-19T16:25:59.458Z,2.97
2019-03-19T16:28:32.859Z,3.63
2019-03-19T16:31:06.743Z,5.87
2019-03-19T16:33:40.505Z,6.13
2019-03-19T16:36:14.495Z,6.90
2019-03-19T16:38:48.082Z,4.23
2019-03-19T16:41:21.720Z,2.63
2019-03-19T16:43:55.242Z,2.87
2019-03-19T16:46:28.639Z,2.90
2019-03-19T16:49:02.121Z,2.97
2019-03-19T16:51:35.656Z,5.23
2019-03-19T16:54:09.090Z,6.00
2019-03-19T16:56:42.771Z,2.57
2019-03-19T16:59:16.342Z,4.23
2019-03-19T17:01:49.805Z,3.13
2019-03-19T17:04:23.246Z,5.90
2019-03-19T17:06:56.580Z,4.83
2019-03-19T17:09:30.204Z,6.10
2019-03-19T17:12:03.609Z,9.43
2019-03-19T17:14:37.233Z,7.93
2019-03-19T17:17:10.738Z,6.27
2019-03-19T17:19:44.318Z,6.60
2019-03-19T17:22:17.800Z,3.43
2019-03-19T17:24:51.299Z,3.80
2019-03-19T17:27:24.769Z,4.00
2019-03-19T17:29:58.445Z,3.53
2019-03-19T17:32:32.050Z,6.90
2019-03-19T17:35:05.737Z,7.03
2019-03-19T17:37:39.326Z,5.90
2019-03-19T17:40:14.108Z,4.87
2019-03-19T17:42:47.566Z,7.07
2019-03-19T17:45:21.003Z,6.30
2019-03-19T17:47:54.752Z,6.40
2019-03-19T17:50:39.977Z,5.80
2019-03-19T17:53:13.431Z,7.43
2019-03-19T17:55:46.941Z,5.20
2019-03-19T17:58:20.373Z,7.63
2019-03-19T18:00:54.995Z,7.07
2019-03-19T18:03:28.446Z,3.27
2019-03-19T18:06:01.939Z,6.63
2019-03-19T18:08:35.334Z,6.67
2019-03-19T18:11:08.885Z,11.70
2019-03-19T18:13:42.271Z,8.13
2019-03-19T18:16:15.781Z,6.30
2019-03-19T18:18:49.144Z,7.10
2019-03-19T18:21:22.703Z,3.57
2019-03-19T18:23:56.281Z,6.60
2019-03-19T18:26:29.645Z,7.80
2019-03-19T18:29:02.974Z,4.73
2019-03-19T18:31:36.572Z,7.77
2019-03-19T18:34:10.742Z,5.37
2019-03-19T18:36:44.156Z,3.77
2019-03-19T18:39:17.679Z,5.17
2019-03-19T18:41:51.227Z,8.33
2019-03-19T18:44:24.809Z,4.33
2019-03-19T18:46:58.357Z,4.83
2019-03-19T18:49:31.753Z,5.93
2019-03-19T18:52:05.175Z,6.63
2019-03-19T18:54:38.631Z,6.23
2019-03-19T18:57:12.124Z,9.77
2019-03-19T18:59:45.717Z,11.50
2019-03-19T19:02:19.233Z,11.00
2019-03-19T19:04:52.646Z,8.53
2019-03-19T19:07:26.162Z,78.00
2019-03-19T19:09:59.564Z,9.43
2019-03-19T19:12:33.054Z,14.20
2019-03-19T19:15:17.438Z,9.27
2019-03-19T19:17:50.830Z,14.23
2019-03-19T19:20:24.436Z,12.37
2019-03-19T19:22:58.211Z,7.70
2019-03-19T19:25:31.857Z,4.73
2019-03-19T19:28:05.620Z,6.90
2019-03-19T19:30:39.247Z,3.70
2019-03-19T19:33:12.650Z,2.73
2019-03-19T19:35:46.170Z,4.50
2019-03-19T19:38:19.637Z,2.57
2019-03-19T19:40:53.358Z,3.83
2019-03-19T19:43:26.770Z,7.87
2019-03-19T19:46:00.453Z,6.83
2019-03-19T19:48:34.179Z,5.23
2019-03-19T19:51:07.676Z,8.67
2019-03-19T19:53:41.106Z,3.50
2019-03-19T19:56:14.677Z,10.50
2019-03-19T19:58:48.137Z,3.17
2019-03-19T20:01:21.666Z,2.10
2019-03-19T20:03:55.046Z,5.90
2019-03-19T20:06:28.467Z,2.63
2019-03-19T20:09:02.011Z,4.33
2019-03-19T20:11:35.543Z,4.70
2019-03-19T20:14:09.113Z,3.20
2019-03-19T20:16:42.675Z,4.33
2019-03-19T20:19:16.236Z,4.80
2019-03-19T20:21:49.759Z,8.57
2019-03-19T20:24:23.190Z,4.40
2019-03-19T20:26:56.828Z,9.47
2019-03-19T20:29:30.361Z,6.43
2019-03-19T20:32:03.788Z,4.73
2019-03-19T20:34:37.166Z,3.30
2019-03-19T20:37:10.607Z,1.93
2019-03-19T20:39:44.021Z,5.00
2019-03-19T20:42:17.455Z,3.83
2019-03-19T20:44:50.921Z,1.37
2019-03-19T20:47:24.827Z,3.60
2019-03-19T20:49:58.318Z,4.17
2019-03-19T20:52:31.854Z,2.00
2019-03-19T20:55:05.769Z,2.23
2019-03-19T20:57:39.268Z,7.63
2019-03-19T21:00:15.018Z,2.27
2019-03-19T21:02:48.450Z,3.87
2019-03-19T21:05:21.846Z,5.57
2019-03-19T21:07:55.323Z,2.13
2019-03-19T21:10:28.777Z,3.73
2019-03-19T21:13:02.384Z,1.90
2019-03-19T21:15:35.774Z,4.83
2019-03-19T21:18:09.185Z,2.63
2019-03-19T21:20:42.531Z,1.37
2019-03-19T21:23:16.952Z,4.47
2019-03-19T21:25:50.291Z,1.67
2019-03-19T21:28:24.313Z,1.40
2019-03-19T21:30:57.657Z,2.40
2019-03-19T21:33:31.109Z,3.33
2019-03-19T21:36:04.617Z,1.40
2019-03-19T21:38:39.364Z,7.83
2019-03-19T21:41:13.378Z,3.17
2019-03-19T21:43:46.798Z,5.07
2019-03-19T21:46:20.227Z,1.60
2019-03-19T21:48:53.619Z,3.47
2019-03-19T21:51:28.100Z,2.20
2019-03-19T21:54:01.550Z,1.67
2019-03-19T21:56:34.997Z,1.47
2019-03-19T21:59:08.622Z,2.93
2019-03-19T22:01:42.241Z,4.37
2019-03-19T22:04:15.695Z,2.60
2019-03-19T22:06:50.326Z,4.00
2019-03-19T22:09:23.666Z,3.83
2019-03-19T22:11:57.112Z,4.57
2019-03-19T22:14:30.522Z,2.93
2019-03-19T22:17:04.112Z,4.83
2019-03-19T22:19:37.547Z,4.00
2019-03-19T22:22:11.041Z,1.87
2019-03-19T22:24:44.371Z,2.97
2019-03-19T22:27:17.846Z,2.80
2019-03-19T22:29:51.215Z,4.10
2019-03-19T22:32:24.826Z,3.47
2019-03-19T22:34:58.233Z,3.27
2019-03-19T22:37:31.637Z,1.63
2019-03-19T22:40:10.828Z,1.93
2019-03-19T22:42:44.334Z,4.20
2019-03-19T22:45:21.327Z,3.53
2019-03-19T22:47:54.712Z,4.83
2019-03-19T22:50:28.029Z,2.17
2019-03-19T22:53:01.375Z,2.83
2019-03-19T22:55:34.787Z,7.10
2019-03-19T22:58:08.201Z,2.13
2019-03-19T23:00:43.321Z,8.63
2019-03-19T23:03:16.765Z,6.20
2019-03-19T23:05:50.521Z,4.27
2019-03-19T23:08:23.943Z,2.83
2019-03-19T23:10:57.366Z,5.63
2019-03-19T23:13:30.739Z,2.63
2019-03-19T23:16:04.125Z,2.73
2019-03-19T23:18:37.671Z,4.70
2019-03-19T23:21:11.086Z,3.90
2019-03-19T23:23:44.559Z,3.13
2019-03-19T23:26:17.927Z,4.53
2019-03-19T23:28:51.388Z,5.87
2019-03-19T23:31:24.715Z,5.13
2019-03-19T23:33:58.145Z,3.67
2019-03-19T23:36:31.700Z,3.67
2019-03-19T23:39:06.854Z,4.47
2019-03-19T23:41:40.242Z,2.70
2019-03-19T23:44:13.694Z,5.37
2019-03-19T23:46:47.179Z,2.43
2019-03-19T23:49:20.645Z,7.23
2019-03-19T23:51:54.050Z,12.63
2019-03-19T23:54:27.450Z,3.83
2019-03-19T23:57:00.795Z,4.87
2019-03-19T23:59:34.137Z,2.80
